createdAt,value
2022-10-17T00:00:08.380Z,18.96
2022-10-17T00:01:09.602Z,19.30
2022-10-17T00:01:49.491Z,17.75
2022-10-17T00:02:36.422Z,17.64
2022-10-17T00:03:30.381Z,18.59
2022-10-17T00:04:24.573Z,18.89
2022-10-17T00:05:18.397Z,20.40
2022-10-17T00:06:12.356Z,20.67
2022-10-17T00:07:06.412Z,19.48
2022-10-17T00:07:53.443Z,21.54
2022-10-17T00:08:27.478Z,22.69
2022-10-17T00:09:16.407Z,23.15
2022-10-17T00:09:50.472Z,28.91
2022-10-17T00:10:37.389Z,32.13
2022-10-17T00:11:26.480Z,31.91
2022-10-17T00:12:13.378Z,25.91
2022-10-17T00:12:47.483Z,22.54
2022-10-17T00:13:27.399Z,21.10
2022-10-17T00:14:07.501Z,20.34
2022-10-17T00:14:47.401Z,20.77
2022-10-17T00:15:28.449Z,21.26
2022-10-17T00:16:09.378Z,21.46
2022-10-17T00:16:49.502Z,22.52
2022-10-17T00:17:29.878Z,22.40
2022-10-17T00:18:11.469Z,22.15
2022-10-17T00:18:51.406Z,21.46
2022-10-17T00:19:31.434Z,22.58
2022-10-17T00:20:12.422Z,22.75
2022-10-17T00:20:52.489Z,21.94
2022-10-17T00:21:33.398Z,19.54
2022-10-17T00:22:13.492Z,20.42
2022-10-17T00:22:54.353Z,19.89
2022-10-17T00:23:34.461Z,19.79
2022-10-17T00:24:15.381Z,20.56
2022-10-17T00:24:55.416Z,19.83
2022-10-17T00:25:35.424Z,19.52
2022-10-17T00:26:16.432Z,19.27
2022-10-17T00:26:57.381Z,20.08
2022-10-17T00:27:37.528Z,19.92
2022-10-17T00:28:22.429Z,19.30
2022-10-17T00:29:02.527Z,19.77
2022-10-17T00:29:42.392Z,20.59
2022-10-17T00:30:36.379Z,20.02
2022-10-17T00:31:32.361Z,19.91
2022-10-17T00:32:26.681Z,20.74
2022-10-17T00:33:21.389Z,20.74
2022-10-17T00:34:15.377Z,21.05
2022-10-17T00:35:02.392Z,20.81
2022-10-17T00:35:36.450Z,20.74
2022-10-17T00:36:48.397Z,21.46
2022-10-17T00:37:22.513Z,21.94
2022-10-17T00:38:09.353Z,22.41
2022-10-17T00:38:43.455Z,23.39
2022-10-17T00:39:30.364Z,24.23
2022-10-17T00:40:11.401Z,23.17
2022-10-17T00:41:05.540Z,22.63
2022-10-17T00:41:59.356Z,23.61
2022-10-17T00:42:53.349Z,23.89
2022-10-17T00:44:09.532Z,23.30
2022-10-17T00:45:03.348Z,22.95
2022-10-17T00:45:43.352Z,23.26
2022-10-17T00:46:23.474Z,22.84
2022-10-17T00:47:05.345Z,23.05
2022-10-17T00:47:45.524Z,21.61
2022-10-17T00:48:26.357Z,21.38
2022-10-17T00:49:12.722Z,21.49
2022-10-17T00:49:53.403Z,22.35
2022-10-17T00:50:34.414Z,22.29
2022-10-17T00:51:14.376Z,20.91
2022-10-17T00:52:01.405Z,21.30
2022-10-17T00:52:41.363Z,22.40
2022-10-17T00:53:21.441Z,22.40
2022-10-17T00:54:02.354Z,20.01
2022-10-17T00:54:47.429Z,21.20
2022-10-17T00:55:37.347Z,20.59
2022-10-17T00:56:25.561Z,20.80
2022-10-17T00:57:19.381Z,21.38
2022-10-17T00:58:16.352Z,21.19
2022-10-17T00:59:11.410Z,22.08
2022-10-17T01:00:07.340Z,20.04
2022-10-17T01:01:02.439Z,20.61
2022-10-17T01:01:55.442Z,19.71
2022-10-17T01:02:29.682Z,21.01
2022-10-17T01:03:16.326Z,21.52
2022-10-17T01:03:50.385Z,20.92
2022-10-17T01:04:38.344Z,21.75
2022-10-17T01:05:13.380Z,20.30
2022-10-17T01:06:00.338Z,20.95
2022-10-17T01:06:34.402Z,19.94
2022-10-17T01:07:15.366Z,19.85
2022-10-17T01:07:57.389Z,19.90
2022-10-17T01:08:38.338Z,20.24
2022-10-17T01:09:18.386Z,20.09
2022-10-17T01:09:59.342Z,20.75
2022-10-17T01:11:01.411Z,19.88
2022-10-17T01:11:55.333Z,19.11
2022-10-17T01:12:42.489Z,19.77
2022-10-17T01:13:54.458Z,20.76
2022-10-17T01:15:25.336Z,20.13
2022-10-17T01:16:32.401Z,20.11
2022-10-17T01:17:44.385Z,20.44
2022-10-17T01:18:47.417Z,19.75
2022-10-17T01:19:46.318Z,20.41
2022-10-17T01:21:14.385Z,20.36
2022-10-17T01:22:38.326Z,19.49
2022-10-17T01:23:45.321Z,20.50
2022-10-17T01:24:47.347Z,20.16
2022-10-17T01:26:02.336Z,19.55
2022-10-17T01:27:32.358Z,19.84
2022-10-17T01:28:51.339Z,19.71
2022-10-17T01:30:38.333Z,19.64
2022-10-17T01:31:53.346Z,20.02
2022-10-17T01:32:56.325Z,19.94
2022-10-17T01:34:13.375Z,19.31
2022-10-17T01:35:29.301Z,19.06
2022-10-17T01:36:51.308Z,20.39
2022-10-17T01:38:05.269Z,19.08
2022-10-17T01:39:16.368Z,19.46
2022-10-17T01:40:23.317Z,20.84
2022-10-17T01:41:42.328Z,20.69
2022-10-17T01:43:04.284Z,21.69
2022-10-17T01:44:05.294Z,20.63
2022-10-17T01:44:55.374Z,20.52
2022-10-17T01:45:48.409Z,20.04
2022-10-17T01:46:34.353Z,19.94
2022-10-17T01:47:34.313Z,20.60
2022-10-17T01:48:34.292Z,21.66
2022-10-17T01:49:31.294Z,22.39
2022-10-17T01:50:26.358Z,21.54
2022-10-17T01:51:15.384Z,22.00
2022-10-17T01:52:17.305Z,23.24
2022-10-17T01:53:00.399Z,22.88
2022-10-17T01:53:54.318Z,21.52
2022-10-17T01:54:52.393Z,21.20
2022-10-17T01:55:46.423Z,22.71
2022-10-17T01:56:21.392Z,23.49
2022-10-17T01:57:12.315Z,22.04
2022-10-17T01:57:56.628Z,23.11
2022-10-17T01:58:59.303Z,23.00
2022-10-17T01:59:42.360Z,19.66
2022-10-17T02:00:31.292Z,20.20
2022-10-17T02:01:17.442Z,20.08
2022-10-17T02:02:12.297Z,19.53
2022-10-17T02:03:11.283Z,19.98
2022-10-17T02:04:06.268Z,22.27
2022-10-17T02:06:00.286Z,21.96
2022-10-17T02:06:44.416Z,23.42
2022-10-17T02:07:24.401Z,21.59
2022-10-17T02:08:05.286Z,22.17
2022-10-17T02:08:51.411Z,21.89
2022-10-17T02:09:33.268Z,21.44
2022-10-17T02:10:19.393Z,22.20
2022-10-17T02:11:12.281Z,22.29
2022-10-17T02:12:43.332Z,22.34
2022-10-17T02:13:54.413Z,20.36
2022-10-17T02:15:28.265Z,21.91
2022-10-17T02:17:11.329Z,22.20
2022-10-17T02:18:23.319Z,23.23
2022-10-17T02:19:53.364Z,21.27
2022-10-17T02:20:52.275Z,22.21
2022-10-17T02:21:59.384Z,21.84
2022-10-17T02:23:21.275Z,22.42
2022-10-17T02:24:27.322Z,22.31
2022-10-17T02:25:21.276Z,21.34
2022-10-17T02:26:43.298Z,22.00
2022-10-17T02:28:01.264Z,24.05
2022-10-17T02:28:57.327Z,22.04
2022-10-17T02:29:48.329Z,22.35
2022-10-17T02:31:12.271Z,23.02
2022-10-17T02:33:04.272Z,20.86
2022-10-17T02:33:51.379Z,20.69
2022-10-17T02:34:57.282Z,20.51
2022-10-17T02:35:43.337Z,22.65
2022-10-17T02:36:30.234Z,21.27
2022-10-17T02:37:13.375Z,20.63
2022-10-17T02:37:54.317Z,19.45
2022-10-17T02:38:36.341Z,21.24
2022-10-17T02:39:17.269Z,20.36
2022-10-17T02:40:05.281Z,21.46
2022-10-17T02:41:00.318Z,22.14
2022-10-17T02:41:55.228Z,21.60
2022-10-17T02:42:49.260Z,21.41
2022-10-17T02:43:43.288Z,21.61
2022-10-17T02:44:38.252Z,22.71
2022-10-17T02:45:26.283Z,22.09
2022-10-17T02:46:00.344Z,21.49
2022-10-17T02:46:48.281Z,21.49
2022-10-17T02:47:33.585Z,22.96
2022-10-17T02:48:46.292Z,23.91
2022-10-17T02:49:38.325Z,22.64
2022-10-17T02:50:19.368Z,20.98
2022-10-17T02:51:18.355Z,22.19
2022-10-17T02:51:59.438Z,23.26
2022-10-17T02:53:14.602Z,21.02
2022-10-17T02:54:29.269Z,19.83
2022-10-17T02:55:27.313Z,20.52
2022-10-17T02:56:06.498Z,20.84
2022-10-17T02:57:09.270Z,19.51
2022-10-17T02:57:47.328Z,19.44
2022-10-17T02:58:30.408Z,21.05
2022-10-17T02:59:13.229Z,21.63
2022-10-17T02:59:47.376Z,20.54
2022-10-17T03:00:22.252Z,21.30
2022-10-17T03:01:03.256Z,19.96
2022-10-17T03:01:37.361Z,21.25
2022-10-17T03:02:17.240Z,21.11
2022-10-17T03:03:00.324Z,20.25
2022-10-17T03:03:40.249Z,20.96
2022-10-17T03:04:22.332Z,21.31
2022-10-17T03:05:03.357Z,20.73
2022-10-17T03:05:43.359Z,20.76
2022-10-17T03:06:23.232Z,21.59
2022-10-17T03:07:03.306Z,21.55
2022-10-17T03:07:44.330Z,21.39
2022-10-17T03:08:25.347Z,22.70
2022-10-17T03:09:05.229Z,24.35
2022-10-17T03:09:45.335Z,23.02
2022-10-17T03:10:26.259Z,20.85
2022-10-17T03:11:06.324Z,21.54
2022-10-17T03:11:46.229Z,21.36
2022-10-17T03:12:27.592Z,22.56
2022-10-17T03:13:08.344Z,22.19
2022-10-17T03:13:48.303Z,21.39
2022-10-17T03:14:28.224Z,20.83
2022-10-17T03:15:09.303Z,21.14
2022-10-17T03:15:50.257Z,21.19
2022-10-17T03:16:30.398Z,21.85
2022-10-17T03:17:11.217Z,22.26
2022-10-17T03:17:51.326Z,20.98
2022-10-17T03:18:31.273Z,21.76
2022-10-17T03:19:11.290Z,20.52
2022-10-17T03:19:51.262Z,19.89
2022-10-17T03:20:31.351Z,20.75
2022-10-17T03:21:11.267Z,21.30
2022-10-17T03:21:52.272Z,21.05
2022-10-17T03:22:32.482Z,20.42
2022-10-17T03:23:13.465Z,22.00
2022-10-17T03:23:53.256Z,23.01
2022-10-17T03:24:33.325Z,22.61
2022-10-17T03:25:14.212Z,23.40
2022-10-17T03:25:54.273Z,23.50
2022-10-17T03:26:36.349Z,21.84
2022-10-17T03:27:16.314Z,20.09
2022-10-17T03:27:56.209Z,20.64
2022-10-17T03:28:36.336Z,20.26
2022-10-17T03:29:16.254Z,21.04
2022-10-17T03:29:56.288Z,21.99
2022-10-17T03:30:36.228Z,21.88
2022-10-17T03:31:20.297Z,21.80
2022-10-17T03:32:00.208Z,21.96
2022-10-17T03:32:41.300Z,21.99
2022-10-17T03:33:21.227Z,21.27
2022-10-17T03:34:01.292Z,22.21
2022-10-17T03:34:41.246Z,21.89
2022-10-17T03:35:21.312Z,20.42
2022-10-17T03:36:01.219Z,20.79
2022-10-17T03:36:41.359Z,20.92
2022-10-17T03:37:21.197Z,22.02
2022-10-17T03:38:02.292Z,22.24
2022-10-17T03:38:42.199Z,21.74
2022-10-17T03:39:22.285Z,21.01
2022-10-17T03:40:02.226Z,20.59
2022-10-17T03:40:43.268Z,22.46
2022-10-17T03:41:23.201Z,22.45
2022-10-17T03:42:03.296Z,21.36
2022-10-17T03:42:44.216Z,22.67
2022-10-17T03:43:24.299Z,20.64
2022-10-17T03:44:04.257Z,21.63
2022-10-17T03:44:44.301Z,22.44
2022-10-17T03:45:25.207Z,22.05
2022-10-17T03:46:07.355Z,20.79
2022-10-17T03:46:47.200Z,21.02
2022-10-17T03:47:27.568Z,20.66
2022-10-17T03:48:08.206Z,21.42
2022-10-17T03:48:48.264Z,20.67
2022-10-17T03:49:28.203Z,21.60
2022-10-17T03:50:09.261Z,22.21
2022-10-17T03:50:49.208Z,21.75
2022-10-17T03:51:29.280Z,20.75
2022-10-17T03:52:09.189Z,20.40
2022-10-17T03:52:54.284Z,20.66
2022-10-17T03:53:35.196Z,20.86
2022-10-17T03:54:15.309Z,20.79
2022-10-17T03:54:57.234Z,20.41
2022-10-17T03:55:37.324Z,21.58
2022-10-17T03:56:28.210Z,19.49
2022-10-17T03:57:02.306Z,19.15
2022-10-17T03:57:49.208Z,20.96
2022-10-17T03:58:23.262Z,21.51
2022-10-17T03:59:11.184Z,20.81
2022-10-17T03:59:45.289Z,20.85
2022-10-17T04:00:32.219Z,21.49
2022-10-17T04:01:12.483Z,23.51
2022-10-17T04:01:52.241Z,23.41
2022-10-17T04:02:32.236Z,24.20
2022-10-17T04:03:16.413Z,25.01
2022-10-17T04:04:00.261Z,21.75
2022-10-17T04:04:41.189Z,21.73
2022-10-17T04:05:21.243Z,20.92
2022-10-17T04:06:01.166Z,20.66
2022-10-17T04:06:42.248Z,21.91
2022-10-17T04:07:22.275Z,21.11
2022-10-17T04:08:04.690Z,21.85
2022-10-17T04:08:46.200Z,21.01
2022-10-17T04:09:26.297Z,21.15
2022-10-17T04:10:06.201Z,21.13
2022-10-17T04:10:46.299Z,21.42
2022-10-17T04:11:28.179Z,22.36
2022-10-17T04:12:08.217Z,21.27
2022-10-17T04:12:48.296Z,21.05
2022-10-17T04:13:28.305Z,21.98
2022-10-17T04:14:09.197Z,22.10
2022-10-17T04:14:49.248Z,21.63
2022-10-17T04:15:29.177Z,21.51
2022-10-17T04:16:31.204Z,23.84
2022-10-17T04:17:25.204Z,25.24
2022-10-17T04:18:12.213Z,23.17
2022-10-17T04:18:46.324Z,22.15
2022-10-17T04:19:33.145Z,21.50
2022-10-17T04:20:07.232Z,22.84
2022-10-17T04:20:54.186Z,21.20
2022-10-17T04:21:29.384Z,23.13
2022-10-17T04:22:16.221Z,23.30
2022-10-17T04:22:50.254Z,22.55
2022-10-17T04:23:37.173Z,22.17
2022-10-17T04:24:11.529Z,22.70
2022-10-17T04:24:58.185Z,21.70
2022-10-17T04:25:34.668Z,21.29
2022-10-17T04:26:23.183Z,21.64
2022-10-17T04:26:57.238Z,22.31
2022-10-17T04:27:44.189Z,22.88
2022-10-17T04:28:18.314Z,21.58
2022-10-17T04:28:59.226Z,21.00
2022-10-17T04:29:39.285Z,21.08
2022-10-17T04:30:19.160Z,20.81
2022-10-17T04:31:06.385Z,20.99
2022-10-17T04:31:46.149Z,23.16
2022-10-17T04:32:26.413Z,22.22
2022-10-17T04:33:07.183Z,20.74
2022-10-17T04:33:48.362Z,22.30
2022-10-17T04:34:28.227Z,21.29
2022-10-17T04:35:08.298Z,21.36
2022-10-17T04:35:48.175Z,21.91
2022-10-17T04:36:28.290Z,21.60
2022-10-17T04:37:09.177Z,22.66
2022-10-17T04:37:49.225Z,21.95
2022-10-17T04:38:29.179Z,22.49
2022-10-17T04:39:09.437Z,22.13
2022-10-17T04:39:49.182Z,21.38
2022-10-17T04:40:29.282Z,21.19
2022-10-17T04:41:14.149Z,20.92
2022-10-17T04:41:54.306Z,22.44
2022-10-17T04:42:36.186Z,21.74
2022-10-17T04:43:16.226Z,22.25
2022-10-17T04:43:56.181Z,22.58
2022-10-17T04:44:36.281Z,22.76
2022-10-17T04:45:17.161Z,22.85
2022-10-17T04:45:57.218Z,22.63
2022-10-17T04:46:37.200Z,22.04
2022-10-17T04:47:17.256Z,21.26
2022-10-17T04:47:57.227Z,22.05
2022-10-17T04:48:37.272Z,23.24
2022-10-17T04:49:17.187Z,22.92
2022-10-17T04:49:57.253Z,21.52
2022-10-17T04:50:37.192Z,22.54
2022-10-17T04:51:25.934Z,22.86
2022-10-17T04:52:08.140Z,24.21
2022-10-17T04:52:48.265Z,24.61
2022-10-17T04:53:29.172Z,23.58
2022-10-17T04:54:09.247Z,23.34
2022-10-17T04:54:50.181Z,23.06
2022-10-17T04:55:30.214Z,26.24
2022-10-17T04:56:17.164Z,26.73
2022-10-17T04:56:57.229Z,26.26
2022-10-17T04:57:37.147Z,25.23
2022-10-17T04:58:17.175Z,26.39
2022-10-17T04:58:58.120Z,27.36
2022-10-17T04:59:38.197Z,26.90
2022-10-17T05:00:19.147Z,27.38
2022-10-17T05:00:59.353Z,26.38
2022-10-17T05:01:40.173Z,27.24
2022-10-17T05:02:21.293Z,26.65
2022-10-17T05:03:01.151Z,24.84
2022-10-17T05:03:42.349Z,25.21
2022-10-17T05:04:24.689Z,26.65
2022-10-17T05:05:05.214Z,26.21
2022-10-17T05:05:47.328Z,25.70
2022-10-17T05:06:33.623Z,25.40
2022-10-17T05:07:13.156Z,26.83
2022-10-17T05:07:53.231Z,26.90
2022-10-17T05:08:33.150Z,27.02
2022-10-17T05:09:13.188Z,25.46
2022-10-17T05:09:53.132Z,26.33
2022-10-17T05:10:33.184Z,26.09
2022-10-17T05:11:34.125Z,26.34
2022-10-17T05:12:21.153Z,26.81
2022-10-17T05:13:15.145Z,24.05
2022-10-17T05:14:13.154Z,25.04
2022-10-17T05:15:07.136Z,25.02
2022-10-17T05:16:01.124Z,24.59
2022-10-17T05:16:55.178Z,25.14
2022-10-17T05:17:42.223Z,24.69
2022-10-17T05:18:16.263Z,24.64
2022-10-17T05:19:05.132Z,24.49
2022-10-17T05:19:39.322Z,23.46
2022-10-17T05:20:26.162Z,24.30
2022-10-17T05:21:00.209Z,25.48
2022-10-17T05:21:47.130Z,25.80
2022-10-17T05:22:21.296Z,24.51
2022-10-17T05:23:02.171Z,25.46
2022-10-17T05:23:42.226Z,23.42
2022-10-17T05:24:23.171Z,24.52
2022-10-17T05:25:03.173Z,25.80
2022-10-17T05:25:43.117Z,24.80
2022-10-17T05:26:24.215Z,23.74
2022-10-17T05:27:04.127Z,23.15
2022-10-17T05:27:44.223Z,22.89
2022-10-17T05:28:24.216Z,23.14
2022-10-17T05:29:04.372Z,24.25
2022-10-17T05:29:45.105Z,24.99
2022-10-17T05:30:25.228Z,25.20
2022-10-17T05:31:13.139Z,23.85
2022-10-17T05:31:53.226Z,24.27
2022-10-17T05:32:33.146Z,23.42
2022-10-17T05:33:13.193Z,23.35
2022-10-17T05:33:53.156Z,23.84
2022-10-17T05:34:33.160Z,25.13
2022-10-17T05:35:14.359Z,24.05
2022-10-17T05:35:54.171Z,24.23
2022-10-17T05:36:35.102Z,26.98
2022-10-17T05:37:15.198Z,25.80
2022-10-17T05:37:56.121Z,23.88
2022-10-17T05:38:36.156Z,23.79
2022-10-17T05:39:21.128Z,23.84
2022-10-17T05:40:01.159Z,24.45
2022-10-17T05:40:41.102Z,24.33
2022-10-17T05:41:21.169Z,25.19
2022-10-17T05:42:01.098Z,25.34
2022-10-17T05:42:41.221Z,24.99
2022-10-17T05:43:21.092Z,25.21
2022-10-17T05:44:04.615Z,25.05
2022-10-17T05:44:48.122Z,26.74
2022-10-17T05:45:28.234Z,25.00
2022-10-17T05:46:14.096Z,24.71
2022-10-17T05:46:58.244Z,27.46
2022-10-17T05:47:38.092Z,26.90
2022-10-17T05:48:18.172Z,26.16
2022-10-17T05:49:00.121Z,25.61
2022-10-17T05:49:46.403Z,31.70
2022-10-17T05:50:32.192Z,37.69
2022-10-17T05:51:16.153Z,35.96
2022-10-17T05:51:56.079Z,32.26
2022-10-17T05:52:36.240Z,34.60
2022-10-17T05:53:17.110Z,38.08
2022-10-17T05:53:57.164Z,40.66
2022-10-17T05:54:37.085Z,40.22
2022-10-17T05:55:17.197Z,38.74
2022-10-17T05:56:06.115Z,40.88
2022-10-17T05:56:46.173Z,40.13
2022-10-17T05:57:27.097Z,40.38
2022-10-17T05:58:09.774Z,39.85
2022-10-17T05:58:55.162Z,38.83
2022-10-17T05:59:37.165Z,39.92
2022-10-17T06:00:18.136Z,41.34
2022-10-17T06:00:58.258Z,43.03
2022-10-17T06:01:38.149Z,41.74
2022-10-17T06:02:21.726Z,42.03
2022-10-17T06:03:02.088Z,40.60
2022-10-17T06:03:42.157Z,41.06
2022-10-17T06:04:22.074Z,40.80
2022-10-17T06:05:02.157Z,42.83
2022-10-17T06:05:42.076Z,48.06
2022-10-17T06:06:23.348Z,46.44
2022-10-17T06:07:03.119Z,47.42
2022-10-17T06:07:43.252Z,47.97
2022-10-17T06:08:24.164Z,44.80
2022-10-17T06:09:04.190Z,44.38
2022-10-17T06:10:26.175Z,41.28
2022-10-17T06:11:09.891Z,42.83
2022-10-17T06:11:51.202Z,39.67
2022-10-17T06:12:32.250Z,40.01
2022-10-17T06:13:13.121Z,40.49
2022-10-17T06:13:53.056Z,36.28
2022-10-17T06:14:33.270Z,34.06
2022-10-17T06:15:14.080Z,33.69
2022-10-17T06:15:54.284Z,34.01
2022-10-17T06:16:34.073Z,34.10
2022-10-17T06:17:16.202Z,31.74
2022-10-17T06:17:57.163Z,31.27
2022-10-17T06:18:37.180Z,33.51
2022-10-17T06:19:18.094Z,30.76
2022-10-17T06:19:58.250Z,28.06
2022-10-17T06:20:43.831Z,27.67
2022-10-17T06:21:34.377Z,23.50
2022-10-17T06:22:16.352Z,24.21
2022-10-17T06:22:57.176Z,24.73
2022-10-17T06:23:38.110Z,23.76
2022-10-17T06:24:18.175Z,25.15
2022-10-17T06:25:00.113Z,26.52
2022-10-17T06:25:41.260Z,25.74
2022-10-17T06:26:21.075Z,26.60
2022-10-17T06:27:01.223Z,25.33
2022-10-17T06:27:42.127Z,24.09
2022-10-17T06:28:22.196Z,23.94
2022-10-17T06:29:03.129Z,24.08
2022-10-17T06:29:43.226Z,26.34
2022-10-17T06:30:24.050Z,23.77
2022-10-17T06:31:04.113Z,22.81
2022-10-17T06:31:45.100Z,22.85
2022-10-17T06:32:26.142Z,23.64
2022-10-17T06:33:06.150Z,23.55
2022-10-17T06:33:46.223Z,23.15
2022-10-17T06:34:26.103Z,22.67
2022-10-17T06:35:06.121Z,23.65
2022-10-17T06:35:46.087Z,24.24
2022-10-17T06:36:26.114Z,22.66
2022-10-17T06:37:07.065Z,21.31
2022-10-17T06:37:47.137Z,22.30
2022-10-17T06:38:28.097Z,20.85
2022-10-17T06:39:08.186Z,20.01
2022-10-17T06:39:49.083Z,20.33
2022-10-17T06:40:30.261Z,19.25
2022-10-17T06:41:23.066Z,19.95
2022-10-17T06:42:03.186Z,20.77
2022-10-17T06:42:44.145Z,21.08
2022-10-17T06:43:27.840Z,20.34
2022-10-17T06:44:13.185Z,20.60
2022-10-17T06:45:00.149Z,21.26
2022-10-17T06:46:56.153Z,20.08
2022-10-17T06:47:51.071Z,19.63
2022-10-17T06:48:46.060Z,20.38
2022-10-17T06:49:41.027Z,20.26
2022-10-17T06:50:22.102Z,20.74
2022-10-17T06:51:12.198Z,20.56
2022-10-17T06:51:53.107Z,20.86
2022-10-17T06:52:33.245Z,21.15
2022-10-17T06:53:13.073Z,24.96
2022-10-17T06:53:53.155Z,21.44
2022-10-17T06:54:35.355Z,19.94
2022-10-17T06:55:18.315Z,24.60
2022-10-17T06:56:08.073Z,25.00
2022-10-17T06:56:49.157Z,22.49
2022-10-17T06:57:30.583Z,22.77
2022-10-17T06:58:11.140Z,23.60
2022-10-17T06:58:53.096Z,22.61
2022-10-17T06:59:33.218Z,22.08
2022-10-17T07:00:14.065Z,22.81
2022-10-17T07:00:57.529Z,24.24
2022-10-17T07:01:43.189Z,24.65
2022-10-17T07:02:27.613Z,24.81
2022-10-17T07:03:08.079Z,22.75
2022-10-17T07:03:48.450Z,23.51
2022-10-17T07:04:28.100Z,22.74
2022-10-17T07:05:08.156Z,22.86
2022-10-17T07:05:48.076Z,22.76
2022-10-17T07:06:29.147Z,24.61
2022-10-17T07:07:10.095Z,22.75
2022-10-17T07:07:51.845Z,23.98
2022-10-17T07:08:33.041Z,23.85
2022-10-17T07:09:13.154Z,22.64
2022-10-17T07:09:54.033Z,22.40
2022-10-17T07:10:38.248Z,22.83
2022-10-17T07:11:25.110Z,24.99
2022-10-17T07:12:08.357Z,28.29
2022-10-17T07:12:49.137Z,26.04
2022-10-17T07:13:30.090Z,25.60
2022-10-17T07:14:12.106Z,25.94
2022-10-17T07:14:52.236Z,25.09
2022-10-17T07:15:32.096Z,22.42
2022-10-17T07:16:14.101Z,22.63
2022-10-17T07:16:55.099Z,22.83
2022-10-17T07:17:35.213Z,23.05
2022-10-17T07:18:16.186Z,22.23
2022-10-17T07:18:57.293Z,21.33
2022-10-17T07:19:37.048Z,22.91
2022-10-17T07:20:18.080Z,22.61
2022-10-17T07:21:02.065Z,22.79
2022-10-17T07:21:43.204Z,22.98
2022-10-17T07:22:23.287Z,23.71
2022-10-17T07:23:06.159Z,23.96
2022-10-17T07:23:48.075Z,21.36
2022-10-17T07:24:28.175Z,22.40
2022-10-17T07:25:09.228Z,24.11
2022-10-17T07:25:50.233Z,23.25
2022-10-17T07:26:31.287Z,23.92
2022-10-17T07:27:11.236Z,23.49
2022-10-17T07:27:52.182Z,22.20
2022-10-17T07:28:32.279Z,21.14
2022-10-17T07:29:14.176Z,22.55
2022-10-17T07:29:54.232Z,24.81
2022-10-17T07:30:35.057Z,23.49
2022-10-17T07:31:24.200Z,22.13
2022-10-17T07:32:04.116Z,21.33
2022-10-17T07:32:44.149Z,21.75
2022-10-17T07:33:25.039Z,23.95
2022-10-17T07:34:07.176Z,23.65
2022-10-17T07:34:47.068Z,24.16
2022-10-17T07:35:28.123Z,23.34
2022-10-17T07:36:10.161Z,22.39
2022-10-17T07:36:52.057Z,20.13
2022-10-17T07:37:32.262Z,21.55
2022-10-17T07:38:14.181Z,23.64
2022-10-17T07:38:55.014Z,25.06
2022-10-17T07:39:36.516Z,23.13
2022-10-17T07:40:18.074Z,20.70
2022-10-17T07:41:07.199Z,21.79
2022-10-17T07:41:47.096Z,22.34
2022-10-17T07:42:28.481Z,20.89
2022-10-17T07:43:09.160Z,22.90
2022-10-17T07:43:49.077Z,21.94
2022-10-17T07:44:28.997Z,19.64
2022-10-17T07:45:10.093Z,21.04
2022-10-17T07:45:50.006Z,20.95
2022-10-17T07:46:30.089Z,22.29
2022-10-17T07:47:11.001Z,24.01
2022-10-17T07:47:51.105Z,22.60
2022-10-17T07:48:32.010Z,18.74
2022-10-17T07:49:12.077Z,22.55
2022-10-17T07:49:53.059Z,23.27
2022-10-17T07:50:33.145Z,23.25
2022-10-17T07:51:16.066Z,21.91
2022-10-17T07:51:56.129Z,21.11
2022-10-17T07:52:36.013Z,21.24
2022-10-17T07:53:16.093Z,23.00
2022-10-17T07:53:56.024Z,19.75
2022-10-17T07:54:36.053Z,18.80
2022-10-17T07:55:17.021Z,17.90
2022-10-17T07:55:57.243Z,19.01
2022-10-17T07:56:37.021Z,20.54
2022-10-17T07:57:17.089Z,20.23
2022-10-17T07:57:58.013Z,19.45
2022-10-17T07:58:38.129Z,20.15
2022-10-17T07:59:18.999Z,20.13
2022-10-17T07:59:59.064Z,18.46
2022-10-17T08:00:39.053Z,18.13
2022-10-17T08:01:19.169Z,18.63
2022-10-17T08:02:02.993Z,18.17
2022-10-17T08:02:43.143Z,18.58
2022-10-17T08:03:24.039Z,20.59
2022-10-17T08:04:04.073Z,21.33
2022-10-17T08:04:45.993Z,20.33
2022-10-17T08:05:26.034Z,20.15
2022-10-17T08:06:08.013Z,19.11
2022-10-17T08:06:50.844Z,18.59
2022-10-17T08:07:33.005Z,19.74
2022-10-17T08:08:13.255Z,22.38
2022-10-17T08:08:54.011Z,21.40
2022-10-17T08:09:34.044Z,21.00
2022-10-17T08:10:15.047Z,20.24
2022-10-17T08:10:55.137Z,20.13
2022-10-17T08:11:35.057Z,18.88
2022-10-17T08:12:15.251Z,18.98
2022-10-17T08:12:54.993Z,19.51
2022-10-17T08:13:50.113Z,20.67
2022-10-17T08:14:44.188Z,19.60
2022-10-17T08:15:40.030Z,18.83
2022-10-17T08:16:33.965Z,18.35
2022-10-17T08:17:27.988Z,19.56
2022-10-17T08:18:14.994Z,19.42
2022-10-17T08:18:50.096Z,20.77
2022-10-17T08:19:36.960Z,21.69
2022-10-17T08:20:13.043Z,20.05
2022-10-17T08:21:00.322Z,20.29
2022-10-17T08:21:35.269Z,19.36
2022-10-17T08:22:21.982Z,20.15
2022-10-17T08:23:01.055Z,19.44
2022-10-17T08:23:43.100Z,21.02
2022-10-17T08:24:23.075Z,19.38
2022-10-17T08:25:04.015Z,17.65
2022-10-17T08:25:47.076Z,18.73
2022-10-17T08:26:27.956Z,19.98
2022-10-17T08:27:11.427Z,20.05
2022-10-17T08:27:52.948Z,19.06
2022-10-17T08:28:33.424Z,18.06
2022-10-17T08:29:13.119Z,18.49
2022-10-17T08:29:53.552Z,17.14
2022-10-17T08:30:36.978Z,18.08
2022-10-17T08:31:20.116Z,19.41
2022-10-17T08:32:01.837Z,19.08
2022-10-17T08:32:43.070Z,18.79
2022-10-17T08:33:22.949Z,18.50
2022-10-17T08:34:03.013Z,19.17
2022-10-17T08:34:42.965Z,19.60
2022-10-17T08:35:23.768Z,21.27
2022-10-17T08:36:08.977Z,21.05
2022-10-17T08:36:49.464Z,19.36
2022-10-17T08:37:30.251Z,18.27
2022-10-17T08:38:13.320Z,20.08
2022-10-17T08:38:53.972Z,22.01
2022-10-17T08:39:34.031Z,23.06
2022-10-17T08:40:22.018Z,20.08
2022-10-17T08:41:09.046Z,21.08
2022-10-17T08:42:28.981Z,19.41
2022-10-17T08:43:45.035Z,18.88
2022-10-17T08:45:38.039Z,19.27
2022-10-17T08:46:18.090Z,21.11
2022-10-17T08:47:04.974Z,19.61
2022-10-17T08:47:47.066Z,20.30
2022-10-17T08:48:30.981Z,21.66
2022-10-17T08:49:36.028Z,19.84
2022-10-17T08:50:38.147Z,20.17
2022-10-17T08:51:23.288Z,20.19
2022-10-17T08:52:24.980Z,18.69
2022-10-17T08:53:20.589Z,18.90
2022-10-17T08:54:31.061Z,18.83
2022-10-17T08:56:01.023Z,17.08
2022-10-17T08:56:49.251Z,17.90
2022-10-17T08:57:23.672Z,21.80
2022-10-17T08:58:03.929Z,20.55
2022-10-17T08:58:42.014Z,18.49
2022-10-17T08:59:37.306Z,17.74
2022-10-17T09:00:25.922Z,19.19
2022-10-17T09:01:39.969Z,18.80
2022-10-17T09:02:47.571Z,19.29
2022-10-17T09:04:19.985Z,18.20
2022-10-17T09:05:14.734Z,17.29
2022-10-17T09:06:05.920Z,18.31
2022-10-17T09:06:52.942Z,20.50
2022-10-17T09:08:18.998Z,19.44
2022-10-17T09:09:48.934Z,18.61
2022-10-17T09:11:18.058Z,17.36
2022-10-17T09:12:19.992Z,19.05
2022-10-17T09:13:33.016Z,18.91
2022-10-17T09:14:49.935Z,19.17
2022-10-17T09:16:24.460Z,16.84
2022-10-17T09:17:38.952Z,16.94
2022-10-17T09:18:34.081Z,16.95
2022-10-17T09:19:34.921Z,16.19
2022-10-17T09:20:32.970Z,17.14
2022-10-17T09:21:27.007Z,16.56
2022-10-17T09:22:32.015Z,19.54
2022-10-17T09:23:19.973Z,21.19
2022-10-17T09:24:09.797Z,19.36
2022-10-17T09:25:13.965Z,17.26
2022-10-17T09:26:00.165Z,17.94
2022-10-17T09:26:39.901Z,16.39
2022-10-17T09:27:33.059Z,16.98
2022-10-17T09:28:31.068Z,16.73
2022-10-17T09:29:36.060Z,17.24
2022-10-17T09:30:50.017Z,17.77
2022-10-17T09:31:32.963Z,17.60
2022-10-17T09:32:25.970Z,18.01
2022-10-17T09:33:06.019Z,15.70
2022-10-17T09:33:54.223Z,16.09
2022-10-17T09:34:38.147Z,17.64
2022-10-17T09:35:21.917Z,17.41
2022-10-17T09:36:04.005Z,17.84
2022-10-17T09:36:46.945Z,18.21
2022-10-17T09:37:32.971Z,16.79
2022-10-17T09:38:14.943Z,18.14
2022-10-17T09:39:07.934Z,17.96
2022-10-17T09:39:43.050Z,17.01
2022-10-17T09:40:49.750Z,17.91
2022-10-17T09:41:46.799Z,16.48
2022-10-17T09:42:37.960Z,17.14
2022-10-17T09:43:14.689Z,17.14
2022-10-17T09:44:02.917Z,17.40
2022-10-17T09:44:57.953Z,16.42
2022-10-17T09:45:43.851Z,16.86
2022-10-17T09:46:36.900Z,16.31
2022-10-17T09:47:39.169Z,16.79
2022-10-17T09:48:30.901Z,16.45
2022-10-17T09:49:21.947Z,15.69
2022-10-17T09:50:01.926Z,16.10
2022-10-17T09:50:43.000Z,17.20
2022-10-17T09:51:26.126Z,15.63
2022-10-17T09:52:09.971Z,15.86
2022-10-17T09:52:54.917Z,17.54
2022-10-17T09:53:46.002Z,16.66
2022-10-17T09:54:38.892Z,14.18
2022-10-17T09:55:54.940Z,15.57
2022-10-17T09:56:28.608Z,16.84
2022-10-17T09:57:23.003Z,14.55